TAM3537 SBMO-SBGR
Flight info
| Callsign | TAM3537 |
|---|---|
| Flight time | 2h 43m |
| Altitude | 36000 |
| Route | OBLAX UZ21 VUNOX |
| Aircraft | A321/M-SDE3FGHIRWY/LB1 |
Departure
| Time | 2026-04-15 13:11 |
|---|---|
| Airport | Zumbi dos Palmares International Airport (SBMO) |
Arrival
| Time | 2026-04-15 15:54 |
|---|---|
| Airport | São Paulo/Guarulhos–Governor André Franco Montoro International Airport (SBGR) |
| Time | Latitude | Longitude | Altitude | Speed | Heading |
|---|---|---|---|---|---|
| 2026-04-15 12:54 | -9.51393 | -35.79355 | 401 ft | 0 kts | 190° |
| 2026-04-15 13:00 | -9.51381 | -35.79352 | 401 ft | 4 kts | 194° |
| 2026-04-15 13:01 | -9.51355 | -35.79344 | 398 ft | 4 kts | 206° |
| 2026-04-15 13:01 | -9.51332 | -35.79330 | 397 ft | 4 kts | 224° |
| 2026-04-15 13:01 | -9.51317 | -35.79309 | 401 ft | 4 kts | 258° |
| 2026-04-15 13:01 | -9.51316 | -35.79297 | 401 ft | 0 kts | 280° |
| 2026-04-15 13:03 | -9.51314 | -35.79309 | 401 ft | 6 kts | 281° |
| 2026-04-15 13:04 | -9.51301 | -35.79377 | 401 ft | 10 kts | 281° |
| 2026-04-15 13:04 | -9.51289 | -35.79413 | 401 ft | 3 kts | 299° |
| 2026-04-15 13:04 | -9.51267 | -35.79423 | 401 ft | 8 kts | 341° |
| 2026-04-15 13:04 | -9.51193 | -35.79472 | 401 ft | 14 kts | 295° |
| 2026-04-15 13:05 | -9.51168 | -35.79575 | 401 ft | 11 kts | 280° |
| 2026-04-15 13:05 | -9.51152 | -35.79667 | 401 ft | 12 kts | 280° |
| 2026-04-15 13:05 | -9.51136 | -35.79766 | 401 ft | 14 kts | 279° |
| 2026-04-15 13:05 | -9.51125 | -35.79833 | 401 ft | 7 kts | 279° |
| 2026-04-15 13:06 | -9.51117 | -35.79877 | 401 ft | 6 kts | 281° |
| 2026-04-15 13:06 | -9.51110 | -35.79915 | 401 ft | 5 kts | 281° |
| 2026-04-15 13:06 | -9.51103 | -35.79947 | 401 ft | 4 kts | 281° |
| 2026-04-15 13:06 | -9.51098 | -35.79975 | 401 ft | 4 kts | 281° |
| 2026-04-15 13:07 | -9.51093 | -35.79999 | 401 ft | 3 kts | 281° |
| 2026-04-15 13:07 | -9.51089 | -35.80019 | 398 ft | 3 kts | 281° |
| 2026-04-15 13:07 | -9.51086 | -35.80036 | 401 ft | 2 kts | 281° |
| 2026-04-15 13:07 | -9.51083 | -35.80051 | 401 ft | 2 kts | 281° |
| 2026-04-15 13:08 | -9.51080 | -35.80067 | 401 ft | 3 kts | 281° |
| 2026-04-15 13:08 | -9.51075 | -35.80089 | 398 ft | 3 kts | 281° |
| 2026-04-15 13:08 | -9.51070 | -35.80115 | 401 ft | 4 kts | 281° |
| 2026-04-15 13:08 | -9.51064 | -35.80148 | 401 ft | 7 kts | 281° |
| 2026-04-15 13:09 | -9.51053 | -35.80211 | 401 ft | 11 kts | 280° |
| 2026-04-15 13:09 | -9.51035 | -35.80304 | 401 ft | 15 kts | 288° |
| 2026-04-15 13:09 | -9.50954 | -35.80335 | 401 ft | 13 kts | 6° |
| 2026-04-15 13:09 | -9.50880 | -35.80274 | 401 ft | 18 kts | 88° |
| 2026-04-15 13:10 | -9.50881 | -35.80258 | 401 ft | 0 kts | 97° |
| 2026-04-15 13:10 | -9.50881 | -35.80257 | 401 ft | 3 kts | 97° |
| 2026-04-15 13:10 | -9.50933 | -35.79974 | 400 ft | 76 kts | 101° |
| 2026-04-15 13:10 | -9.51072 | -35.79245 | 397 ft | 132 kts | 101° |
| 2026-04-15 13:11 | -9.51284 | -35.78199 | 521 ft | 163 kts | 102° |
| 2026-04-15 13:11 | -9.51503 | -35.77067 | 1034 ft | 169 kts | 103° |
| 2026-04-15 13:11 | -9.51752 | -35.75868 | 1451 ft | 177 kts | 106° |
| 2026-04-15 13:11 | -9.52120 | -35.74686 | 1908 ft | 179 kts | 114° |
| 2026-04-15 13:12 | -9.52807 | -35.73580 | 2171 ft | 193 kts | 134° |
| 2026-04-15 13:12 | -9.53943 | -35.72804 | 2531 ft | 205 kts | 161° |
| 2026-04-15 13:12 | -9.55393 | -35.72785 | 2971 ft | 220 kts | 195° |
| 2026-04-15 13:12 | -9.56687 | -35.73683 | 3436 ft | 241 kts | 230° |
| 2026-04-15 13:13 | -9.57343 | -35.75340 | 3709 ft | 270 kts | 259° |
| 2026-04-15 13:13 | -9.57465 | -35.77275 | 4308 ft | 279 kts | 268° |
| 2026-04-15 13:13 | -9.57486 | -35.79252 | 5046 ft | 283 kts | 267° |
| 2026-04-15 13:13 | -9.57507 | -35.81267 | 5884 ft | 287 kts | 268° |
| 2026-04-15 13:14 | -9.57542 | -35.83299 | 6713 ft | 291 kts | 265° |
| 2026-04-15 13:14 | -9.57768 | -35.85339 | 7443 ft | 293 kts | 259° |
| 2026-04-15 13:14 | -9.58146 | -35.87378 | 8134 ft | 295 kts | 256° |
| 2026-04-15 13:14 | -9.58585 | -35.89422 | 8836 ft | 298 kts | 256° |
| 2026-04-15 13:15 | -9.59034 | -35.91483 | 9527 ft | 301 kts | 256° |
| 2026-04-15 13:15 | -9.59479 | -35.93568 | 10163 ft | 305 kts | 257° |
| 2026-04-15 13:15 | -9.59924 | -35.95741 | 10336 ft | 327 kts | 257° |
| 2026-04-15 13:15 | -9.60383 | -35.98076 | 10478 ft | 348 kts | 257° |
| 2026-04-15 13:16 | -9.60852 | -36.00520 | 10834 ft | 358 kts | 258° |
| 2026-04-15 13:16 | -9.61163 | -36.02169 | 11194 ft | 361 kts | 258° |
| 2026-04-15 13:16 | -9.61796 | -36.05539 | 12008 ft | 366 kts | 258° |
| 2026-04-15 13:16 | -9.62111 | -36.07224 | 12481 ft | 368 kts | 259° |
| 2026-04-15 13:17 | -9.62753 | -36.10652 | 13279 ft | 373 kts | 259° |
| 2026-04-15 13:17 | -9.63076 | -36.12373 | 13649 ft | 375 kts | 259° |
| 2026-04-15 13:17 | -9.63568 | -36.14977 | 14215 ft | 377 kts | 259° |
| 2026-04-15 13:17 | -9.64352 | -36.18447 | 14939 ft | 379 kts | 251° |
| 2026-04-15 13:18 | -9.65012 | -36.20085 | 15278 ft | 381 kts | 244° |
| 2026-04-15 13:18 | -9.66196 | -36.22499 | 15797 ft | 383 kts | 244° |
| 2026-04-15 13:18 | -9.67381 | -36.24925 | 16306 ft | 385 kts | 244° |
| 2026-04-15 13:18 | -9.68569 | -36.27369 | 16826 ft | 387 kts | 245° |
| 2026-04-15 13:19 | -9.69757 | -36.29824 | 17310 ft | 389 kts | 246° |
| 2026-04-15 13:19 | -9.70952 | -36.32293 | 17798 ft | 391 kts | 245° |
| 2026-04-15 13:19 | -9.72156 | -36.34774 | 18264 ft | 393 kts | 245° |
| 2026-04-15 13:19 | -9.73369 | -36.37270 | 18655 ft | 395 kts | 245° |
| 2026-04-15 13:20 | -9.74582 | -36.39770 | 19057 ft | 397 kts | 245° |
| 2026-04-15 13:20 | -9.75800 | -36.42282 | 19471 ft | 398 kts | 245° |
| 2026-04-15 13:20 | -9.77021 | -36.44804 | 19853 ft | 400 kts | 245° |
| 2026-04-15 13:20 | -9.78249 | -36.47343 | 20235 ft | 401 kts | 245° |
| 2026-04-15 13:21 | -9.79479 | -36.49884 | 20607 ft | 403 kts | 245° |
| 2026-04-15 13:21 | -9.80717 | -36.52439 | 20983 ft | 405 kts | 245° |
| 2026-04-15 13:21 | -9.81960 | -36.55011 | 21349 ft | 407 kts | 245° |
| 2026-04-15 13:21 | -9.83206 | -36.57591 | 21739 ft | 409 kts | 245° |
| 2026-04-15 13:22 | -9.84460 | -36.60186 | 22112 ft | 410 kts | 245° |
| 2026-04-15 13:22 | -9.85722 | -36.62789 | 22471 ft | 412 kts | 245° |
| 2026-04-15 13:22 | -9.86991 | -36.65403 | 22823 ft | 414 kts | 245° |
| 2026-04-15 13:22 | -9.88266 | -36.68034 | 23178 ft | 416 kts | 245° |
| 2026-04-15 13:23 | -9.89542 | -36.70670 | 23518 ft | 418 kts | 245° |
| 2026-04-15 13:23 | -9.90981 | -36.73246 | 23804 ft | 421 kts | 237° |
| 2026-04-15 13:23 | -9.92855 | -36.75543 | 24102 ft | 425 kts | 226° |
| 2026-04-15 13:23 | -9.95119 | -36.77483 | 24408 ft | 428 kts | 217° |
| 2026-04-15 13:24 | -9.97561 | -36.79223 | 24721 ft | 430 kts | 217° |
| 2026-04-15 13:24 | -10.00008 | -36.80968 | 25036 ft | 431 kts | 217° |
| 2026-04-15 13:24 | -10.02463 | -36.82723 | 25336 ft | 432 kts | 217° |
| 2026-04-15 13:24 | -10.04922 | -36.84482 | 25638 ft | 433 kts | 217° |
| 2026-04-15 13:25 | -10.07388 | -36.86245 | 25937 ft | 435 kts | 217° |
| 2026-04-15 13:25 | -10.09864 | -36.88014 | 26226 ft | 436 kts | 217° |
| 2026-04-15 13:25 | -10.12344 | -36.89787 | 26528 ft | 437 kts | 217° |
| 2026-04-15 13:25 | -10.14837 | -36.91573 | 26826 ft | 438 kts | 218° |
| 2026-04-15 13:26 | -10.17324 | -36.93358 | 27123 ft | 439 kts | 218° |
| 2026-04-15 13:26 | -10.19826 | -36.95154 | 27427 ft | 441 kts | 218° |
| 2026-04-15 13:26 | -10.22331 | -36.96949 | 27724 ft | 442 kts | 218° |
| 2026-04-15 13:26 | -10.24848 | -36.98748 | 28011 ft | 443 kts | 218° |
| 2026-04-15 13:27 | -10.27374 | -37.00553 | 28318 ft | 444 kts | 218° |
| 2026-04-15 13:27 | -10.29906 | -37.02364 | 28602 ft | 445 kts | 218° |
| 2026-04-15 13:27 | -10.32436 | -37.04180 | 28877 ft | 446 kts | 218° |
| 2026-04-15 13:27 | -10.34970 | -37.06000 | 29138 ft | 448 kts | 218° |
| 2026-04-15 13:28 | -10.37520 | -37.07831 | 29380 ft | 449 kts | 218° |
| 2026-04-15 13:28 | -10.40074 | -37.09664 | 29651 ft | 450 kts | 218° |
| 2026-04-15 13:28 | -10.42638 | -37.11502 | 29915 ft | 451 kts | 218° |
| 2026-04-15 13:28 | -10.45207 | -37.13343 | 30148 ft | 453 kts | 218° |
| 2026-04-15 13:29 | -10.47780 | -37.15189 | 30370 ft | 454 kts | 218° |
| 2026-04-15 13:29 | -10.50356 | -37.17040 | 30589 ft | 454 kts | 218° |
| 2026-04-15 13:29 | -10.52935 | -37.18895 | 30898 ft | 453 kts | 218° |
| 2026-04-15 13:29 | -10.55502 | -37.20741 | 31240 ft | 451 kts | 219° |
| 2026-04-15 13:30 | -10.58057 | -37.22577 | 31587 ft | 449 kts | 219° |
| 2026-04-15 13:30 | -10.60605 | -37.24407 | 31905 ft | 447 kts | 219° |
| 2026-04-15 13:30 | -10.63136 | -37.26227 | 32246 ft | 446 kts | 219° |
| 2026-04-15 13:30 | -10.65666 | -37.28047 | 32602 ft | 444 kts | 219° |
| 2026-04-15 13:31 | -10.68175 | -37.29852 | 32933 ft | 442 kts | 219° |
| 2026-04-15 13:31 | -10.70686 | -37.31658 | 33292 ft | 440 kts | 219° |
| 2026-04-15 13:31 | -10.73178 | -37.33449 | 33663 ft | 439 kts | 219° |
| 2026-04-15 13:31 | -10.75664 | -37.35236 | 34028 ft | 437 kts | 219° |
| 2026-04-15 13:32 | -10.78150 | -37.37020 | 34350 ft | 436 kts | 219° |
| 2026-04-15 13:32 | -10.80623 | -37.38800 | 34673 ft | 436 kts | 219° |
| 2026-04-15 13:32 | -10.83096 | -37.40580 | 34914 ft | 436 kts | 219° |
| 2026-04-15 13:32 | -10.85567 | -37.42360 | 35159 ft | 436 kts | 219° |
| 2026-04-15 13:33 | -10.88040 | -37.44145 | 35422 ft | 435 kts | 219° |
| 2026-04-15 13:33 | -10.90475 | -37.45902 | 35678 ft | 434 kts | 219° |
| 2026-04-15 13:33 | -10.92939 | -37.47678 | 35908 ft | 435 kts | 219° |
| 2026-04-15 13:33 | -10.95433 | -37.49473 | 35979 ft | 433 kts | 219° |
| 2026-04-15 13:34 | -11.00297 | -37.52977 | 35990 ft | 430 kts | 219° |
| 2026-04-15 13:34 | -11.05167 | -37.56488 | 35989 ft | 429 kts | 219° |
| 2026-04-15 13:35 | -11.10037 | -37.60009 | 35982 ft | 430 kts | 219° |
| 2026-04-15 13:35 | -11.14914 | -37.63532 | 35985 ft | 430 kts | 219° |
| 2026-04-15 13:36 | -11.19798 | -37.67056 | 35989 ft | 430 kts | 219° |
| 2026-04-15 13:36 | -11.24679 | -37.70579 | 35988 ft | 430 kts | 219° |
| 2026-04-15 13:37 | -11.29562 | -37.74105 | 35984 ft | 430 kts | 218° |
| 2026-04-15 13:37 | -11.34444 | -37.77633 | 36000 ft | 430 kts | 217° |
| 2026-04-15 13:38 | -11.39325 | -37.81166 | 36006 ft | 430 kts | 217° |
| 2026-04-15 13:38 | -11.44198 | -37.84696 | 36005 ft | 430 kts | 217° |
| 2026-04-15 13:39 | -11.49079 | -37.88231 | 36003 ft | 430 kts | 217° |
| 2026-04-15 13:39 | -11.53948 | -37.91773 | 36007 ft | 430 kts | 218° |
| 2026-04-15 13:40 | -11.58812 | -37.95320 | 36014 ft | 430 kts | 217° |
| 2026-04-15 13:40 | -11.63678 | -37.98866 | 36010 ft | 429 kts | 217° |
| 2026-04-15 13:41 | -11.68546 | -38.02402 | 36011 ft | 429 kts | 217° |
| 2026-04-15 13:41 | -11.73407 | -38.05947 | 36011 ft | 429 kts | 217° |
| 2026-04-15 13:42 | -11.78251 | -38.09495 | 36009 ft | 429 kts | 217° |
| 2026-04-15 13:42 | -11.83098 | -38.13040 | 36009 ft | 429 kts | 217° |
| 2026-04-15 13:43 | -11.87953 | -38.16580 | 36025 ft | 428 kts | 216° |
| 2026-04-15 13:43 | -11.92795 | -38.20112 | 36017 ft | 428 kts | 216° |
| 2026-04-15 13:44 | -11.97626 | -38.23645 | 36022 ft | 427 kts | 216° |
| 2026-04-15 13:44 | -12.02448 | -38.27171 | 36018 ft | 426 kts | 216° |
| 2026-04-15 13:45 | -12.07268 | -38.30695 | 36016 ft | 426 kts | 216° |
| 2026-04-15 13:47 | -12.26527 | -38.44805 | 36010 ft | 426 kts | 216° |
| 2026-04-15 13:47 | -12.31350 | -38.48341 | 36014 ft | 427 kts | 216° |
| 2026-04-15 13:48 | -12.36174 | -38.51882 | 36025 ft | 427 kts | 216° |
| 2026-04-15 13:48 | -12.41000 | -38.55416 | 36027 ft | 427 kts | 216° |
| 2026-04-15 13:49 | -12.45790 | -38.58932 | 36028 ft | 426 kts | 217° |
| 2026-04-15 13:49 | -12.50601 | -38.62469 | 36023 ft | 426 kts | 217° |
| 2026-04-15 13:50 | -12.55413 | -38.66008 | 36030 ft | 426 kts | 217° |
| 2026-04-15 13:50 | -12.60221 | -38.69545 | 36016 ft | 425 kts | 216° |
| 2026-04-15 13:51 | -12.65024 | -38.73076 | 36018 ft | 425 kts | 216° |
| 2026-04-15 13:51 | -12.69820 | -38.76602 | 36020 ft | 424 kts | 216° |
| 2026-04-15 13:52 | -12.74610 | -38.80128 | 36017 ft | 424 kts | 216° |
| 2026-04-15 13:52 | -12.79392 | -38.83654 | 36016 ft | 424 kts | 216° |
| 2026-04-15 13:53 | -12.84179 | -38.87187 | 36014 ft | 423 kts | 217° |
| 2026-04-15 13:53 | -12.88951 | -38.90717 | 36019 ft | 423 kts | 217° |
| 2026-04-15 13:54 | -12.93722 | -38.94250 | 36024 ft | 423 kts | 217° |
| 2026-04-15 13:54 | -12.98488 | -38.97776 | 36019 ft | 422 kts | 217° |
| 2026-04-15 13:55 | -13.03245 | -39.01308 | 36016 ft | 422 kts | 217° |
| 2026-04-15 13:55 | -13.07997 | -39.04835 | 36012 ft | 422 kts | 217° |
| 2026-04-15 13:56 | -13.12747 | -39.08361 | 36023 ft | 421 kts | 217° |
| 2026-04-15 13:56 | -13.17492 | -39.11889 | 36015 ft | 421 kts | 217° |
| 2026-04-15 13:57 | -13.22238 | -39.15412 | 36010 ft | 421 kts | 216° |
| 2026-04-15 13:57 | -13.26984 | -39.18931 | 36010 ft | 421 kts | 216° |
| 2026-04-15 13:58 | -13.31723 | -39.22460 | 36010 ft | 421 kts | 216° |
| 2026-04-15 13:58 | -13.36457 | -39.25989 | 36021 ft | 421 kts | 216° |
| 2026-04-15 13:59 | -13.41194 | -39.29519 | 36017 ft | 421 kts | 216° |
| 2026-04-15 13:59 | -13.45930 | -39.33045 | 36019 ft | 421 kts | 216° |
| 2026-04-15 14:00 | -13.50668 | -39.36584 | 36008 ft | 421 kts | 216° |
| 2026-04-15 14:00 | -13.54598 | -39.39529 | 36014 ft | 421 kts | 216° |
| 2026-04-15 14:01 | -13.61697 | -39.44838 | 36024 ft | 421 kts | 216° |
| 2026-04-15 14:02 | -13.66430 | -39.48393 | 36018 ft | 421 kts | 216° |
| 2026-04-15 14:02 | -13.71161 | -39.51957 | 36025 ft | 422 kts | 216° |
| 2026-04-15 14:03 | -13.75905 | -39.55520 | 36022 ft | 422 kts | 216° |
| 2026-04-15 14:03 | -13.80649 | -39.59077 | 36021 ft | 422 kts | 216° |
| 2026-04-15 14:04 | -13.85392 | -39.62640 | 36036 ft | 422 kts | 216° |
| 2026-04-15 14:04 | -13.90136 | -39.66209 | 36033 ft | 422 kts | 216° |
| 2026-04-15 14:05 | -13.94886 | -39.69775 | 36033 ft | 422 kts | 216° |
| 2026-04-15 14:05 | -13.99637 | -39.73343 | 36029 ft | 422 kts | 216° |
| 2026-04-15 14:06 | -14.04379 | -39.76914 | 36034 ft | 423 kts | 216° |
| 2026-04-15 14:06 | -14.09122 | -39.80493 | 36044 ft | 423 kts | 215° |
| 2026-04-15 14:07 | -14.13864 | -39.84077 | 36029 ft | 423 kts | 215° |
| 2026-04-15 14:07 | -14.18607 | -39.87654 | 36031 ft | 423 kts | 215° |
| 2026-04-15 14:08 | -14.23355 | -39.91227 | 36032 ft | 423 kts | 215° |
| 2026-04-15 14:08 | -14.28100 | -39.94804 | 36038 ft | 423 kts | 216° |
| 2026-04-15 14:09 | -14.32842 | -39.98393 | 36043 ft | 423 kts | 216° |
| 2026-04-15 14:09 | -14.37591 | -40.01979 | 36047 ft | 423 kts | 215° |
| 2026-04-15 14:10 | -14.42342 | -40.05569 | 36046 ft | 423 kts | 215° |
| 2026-04-15 14:10 | -14.47091 | -40.09168 | 36046 ft | 424 kts | 215° |
| 2026-04-15 14:11 | -14.51844 | -40.12770 | 36052 ft | 424 kts | 215° |
| 2026-04-15 14:11 | -14.56599 | -40.16370 | 36053 ft | 424 kts | 215° |
| 2026-04-15 14:12 | -14.61354 | -40.19967 | 36056 ft | 424 kts | 215° |
| 2026-04-15 14:12 | -14.66107 | -40.23569 | 36060 ft | 424 kts | 215° |
| 2026-04-15 14:13 | -14.70855 | -40.27180 | 36051 ft | 424 kts | 215° |
| 2026-04-15 14:13 | -14.75603 | -40.30780 | 36055 ft | 423 kts | 215° |
| 2026-04-15 14:14 | -14.80349 | -40.34379 | 36069 ft | 423 kts | 215° |
| 2026-04-15 14:14 | -14.85093 | -40.37992 | 36061 ft | 424 kts | 215° |
| 2026-04-15 14:15 | -14.89841 | -40.41602 | 36066 ft | 424 kts | 215° |
| 2026-04-15 14:15 | -14.94594 | -40.45210 | 36066 ft | 424 kts | 215° |
| 2026-04-15 14:16 | -14.99343 | -40.48825 | 36062 ft | 424 kts | 216° |
| 2026-04-15 14:16 | -15.04092 | -40.52441 | 36073 ft | 424 kts | 215° |
| 2026-04-15 14:17 | -15.08833 | -40.56059 | 36063 ft | 424 kts | 215° |
| 2026-04-15 14:17 | -15.13582 | -40.59680 | 36063 ft | 424 kts | 215° |
| 2026-04-15 14:18 | -15.18324 | -40.63300 | 36058 ft | 424 kts | 215° |
| 2026-04-15 14:18 | -15.23069 | -40.66928 | 36057 ft | 424 kts | 215° |
| 2026-04-15 14:19 | -15.27808 | -40.70552 | 36056 ft | 424 kts | 215° |
| 2026-04-15 14:19 | -15.32519 | -40.74156 | 36046 ft | 424 kts | 215° |
| 2026-04-15 14:20 | -15.37263 | -40.77778 | 36052 ft | 424 kts | 215° |
| 2026-04-15 14:20 | -15.42013 | -40.81409 | 36051 ft | 424 kts | 215° |
| 2026-04-15 14:21 | -15.46757 | -40.85037 | 36051 ft | 424 kts | 215° |
| 2026-04-15 14:21 | -15.51504 | -40.88675 | 36058 ft | 424 kts | 215° |
| 2026-04-15 14:22 | -15.56250 | -40.92316 | 36050 ft | 424 kts | 215° |
| 2026-04-15 14:22 | -15.60999 | -40.95965 | 36045 ft | 425 kts | 215° |
| 2026-04-15 14:23 | -15.65749 | -40.99611 | 36049 ft | 425 kts | 215° |
| 2026-04-15 14:23 | -15.70499 | -41.03264 | 36051 ft | 425 kts | 215° |
| 2026-04-15 14:24 | -15.75255 | -41.06907 | 36056 ft | 425 kts | 215° |
| 2026-04-15 14:24 | -15.80004 | -41.10553 | 36055 ft | 425 kts | 215° |
| 2026-04-15 14:25 | -15.84754 | -41.14212 | 36048 ft | 425 kts | 216° |
| 2026-04-15 14:25 | -15.89503 | -41.17879 | 36054 ft | 425 kts | 216° |
| 2026-04-15 14:26 | -15.94258 | -41.21548 | 36055 ft | 426 kts | 216° |
| 2026-04-15 14:26 | -15.99013 | -41.25211 | 36056 ft | 426 kts | 216° |
| 2026-04-15 14:27 | -16.03782 | -41.28881 | 36058 ft | 426 kts | 216° |
| 2026-04-15 14:27 | -16.08546 | -41.32550 | 36066 ft | 427 kts | 216° |
| 2026-04-15 14:28 | -16.13315 | -41.36228 | 36055 ft | 426 kts | 216° |
| 2026-04-15 14:28 | -16.18073 | -41.39903 | 36071 ft | 426 kts | 216° |
| 2026-04-15 14:29 | -16.22838 | -41.43588 | 36058 ft | 426 kts | 216° |
| 2026-04-15 14:29 | -16.27596 | -41.47266 | 36046 ft | 426 kts | 216° |
| 2026-04-15 14:30 | -16.32357 | -41.50945 | 36058 ft | 426 kts | 216° |
| 2026-04-15 14:30 | -16.37115 | -41.54634 | 36062 ft | 426 kts | 216° |
| 2026-04-15 14:31 | -16.41872 | -41.58325 | 36055 ft | 426 kts | 216° |
| 2026-04-15 14:31 | -16.46631 | -41.62009 | 36053 ft | 426 kts | 216° |
| 2026-04-15 14:32 | -16.51386 | -41.65696 | 36057 ft | 426 kts | 216° |
| 2026-04-15 14:32 | -16.56109 | -41.69362 | 36052 ft | 426 kts | 216° |
| 2026-04-15 14:33 | -16.60889 | -41.73076 | 36054 ft | 426 kts | 216° |
| 2026-04-15 14:33 | -16.65636 | -41.76764 | 36059 ft | 426 kts | 216° |
| 2026-04-15 14:34 | -16.70348 | -41.80433 | 36061 ft | 425 kts | 216° |
| 2026-04-15 14:34 | -16.75092 | -41.84117 | 36055 ft | 425 kts | 216° |
| 2026-04-15 14:35 | -16.79823 | -41.87804 | 36057 ft | 424 kts | 216° |
| 2026-04-15 14:35 | -16.84549 | -41.91496 | 36064 ft | 424 kts | 216° |
| 2026-04-15 14:36 | -16.89280 | -41.95183 | 36059 ft | 424 kts | 216° |
| 2026-04-15 14:36 | -16.94005 | -41.98872 | 36056 ft | 424 kts | 216° |
| 2026-04-15 14:37 | -16.98727 | -42.02567 | 36067 ft | 423 kts | 216° |
| 2026-04-15 14:37 | -17.03435 | -42.06247 | 36051 ft | 423 kts | 216° |
| 2026-04-15 14:38 | -17.08148 | -42.09926 | 36066 ft | 422 kts | 216° |
| 2026-04-15 14:38 | -17.12850 | -42.13607 | 36069 ft | 422 kts | 216° |
| 2026-04-15 14:39 | -17.17552 | -42.17296 | 36060 ft | 423 kts | 216° |
| 2026-04-15 14:39 | -17.22259 | -42.20980 | 36044 ft | 422 kts | 216° |
| 2026-04-15 14:40 | -17.26962 | -42.24654 | 36065 ft | 422 kts | 216° |
| 2026-04-15 14:40 | -17.31655 | -42.28339 | 36071 ft | 422 kts | 216° |
| 2026-04-15 14:41 | -17.36346 | -42.32029 | 36057 ft | 422 kts | 216° |
| 2026-04-15 14:41 | -17.41043 | -42.35715 | 36074 ft | 422 kts | 216° |
| 2026-04-15 14:42 | -17.45733 | -42.39410 | 36075 ft | 422 kts | 216° |
| 2026-04-15 14:42 | -17.50425 | -42.43103 | 36074 ft | 422 kts | 216° |
| 2026-04-15 14:43 | -17.55130 | -42.46802 | 36073 ft | 423 kts | 216° |
| 2026-04-15 14:43 | -17.59828 | -42.50496 | 36081 ft | 422 kts | 216° |
| 2026-04-15 14:44 | -17.64497 | -42.54179 | 36081 ft | 422 kts | 216° |
| 2026-04-15 14:44 | -17.69190 | -42.57878 | 36073 ft | 422 kts | 216° |
| 2026-04-15 14:45 | -17.73887 | -42.61580 | 36081 ft | 422 kts | 216° |
| 2026-04-15 14:45 | -17.78575 | -42.65287 | 36069 ft | 422 kts | 216° |
| 2026-04-15 14:46 | -17.83257 | -42.69004 | 36072 ft | 422 kts | 216° |
| 2026-04-15 14:46 | -17.87161 | -42.72098 | 36079 ft | 422 kts | 216° |
| 2026-04-15 14:47 | -17.91854 | -42.75804 | 36094 ft | 422 kts | 216° |
| 2026-04-15 14:47 | -17.96550 | -42.79519 | 36086 ft | 423 kts | 216° |
| 2026-04-15 14:48 | -18.01246 | -42.83237 | 36082 ft | 423 kts | 217° |
| 2026-04-15 14:48 | -18.05940 | -42.86960 | 36076 ft | 423 kts | 216° |
| 2026-04-15 14:49 | -18.10634 | -42.90682 | 36079 ft | 423 kts | 216° |
| 2026-04-15 14:49 | -18.15324 | -42.94415 | 36086 ft | 423 kts | 217° |
| 2026-04-15 14:50 | -18.20019 | -42.98152 | 36088 ft | 423 kts | 217° |
| 2026-04-15 14:50 | -18.24718 | -43.01885 | 36082 ft | 423 kts | 217° |
| 2026-04-15 14:51 | -18.29422 | -43.05621 | 36083 ft | 424 kts | 217° |
| 2026-04-15 14:51 | -18.34120 | -43.09361 | 36087 ft | 423 kts | 217° |
| 2026-04-15 14:52 | -18.38816 | -43.13106 | 36092 ft | 423 kts | 217° |
| 2026-04-15 14:52 | -18.43500 | -43.16874 | 36081 ft | 424 kts | 217° |
| 2026-04-15 14:53 | -18.48166 | -43.20666 | 36082 ft | 424 kts | 217° |
| 2026-04-15 14:53 | -18.52835 | -43.24457 | 36088 ft | 424 kts | 217° |
| 2026-04-15 14:54 | -18.57506 | -43.28246 | 36095 ft | 424 kts | 217° |
| 2026-04-15 14:54 | -18.62181 | -43.32042 | 36099 ft | 424 kts | 217° |
| 2026-04-15 14:55 | -18.66874 | -43.35813 | 36107 ft | 424 kts | 217° |
| 2026-04-15 14:55 | -18.71596 | -43.39546 | 36092 ft | 424 kts | 217° |
| 2026-04-15 14:56 | -18.76313 | -43.43288 | 36101 ft | 424 kts | 217° |
| 2026-04-15 14:56 | -18.81033 | -43.47032 | 36098 ft | 424 kts | 217° |
| 2026-04-15 14:57 | -18.85751 | -43.50786 | 36105 ft | 425 kts | 217° |
| 2026-04-15 14:57 | -18.90472 | -43.54533 | 36099 ft | 425 kts | 216° |
| 2026-04-15 14:58 | -18.95252 | -43.58197 | 36109 ft | 425 kts | 216° |
| 2026-04-15 14:58 | -19.00050 | -43.61841 | 36103 ft | 425 kts | 216° |
| 2026-04-15 14:59 | -19.04831 | -43.65504 | 36099 ft | 425 kts | 216° |
| 2026-04-15 14:59 | -19.09613 | -43.69171 | 36099 ft | 425 kts | 216° |
| 2026-04-15 15:00 | -19.14388 | -43.72846 | 36088 ft | 425 kts | 216° |
| 2026-04-15 15:00 | -19.19163 | -43.76528 | 36081 ft | 425 kts | 216° |
| 2026-04-15 15:01 | -19.23933 | -43.80208 | 36090 ft | 425 kts | 216° |
| 2026-04-15 15:01 | -19.28708 | -43.83895 | 36081 ft | 425 kts | 216° |
| 2026-04-15 15:02 | -19.33484 | -43.87578 | 36101 ft | 425 kts | 216° |
| 2026-04-15 15:02 | -19.38263 | -43.91264 | 36119 ft | 425 kts | 216° |
| 2026-04-15 15:03 | -19.43042 | -43.94961 | 36138 ft | 425 kts | 216° |
| 2026-04-15 15:03 | -19.47818 | -43.98655 | 36154 ft | 425 kts | 216° |
| 2026-04-15 15:04 | -19.52600 | -44.02356 | 36160 ft | 425 kts | 216° |
| 2026-04-15 15:04 | -19.57378 | -44.06053 | 36168 ft | 425 kts | 216° |
| 2026-04-15 15:05 | -19.62163 | -44.09736 | 36076 ft | 425 kts | 216° |
| 2026-04-15 15:05 | -19.66923 | -44.13381 | 36084 ft | 425 kts | 216° |
| 2026-04-15 15:06 | -19.74107 | -44.18896 | 36084 ft | 425 kts | 216° |
| 2026-04-15 15:06 | -19.78882 | -44.22589 | 36080 ft | 425 kts | 216° |
| 2026-04-15 15:07 | -19.83654 | -44.26281 | 36100 ft | 424 kts | 216° |
| 2026-04-15 15:07 | -19.88423 | -44.29982 | 36088 ft | 424 kts | 216° |
| 2026-04-15 15:08 | -19.93192 | -44.33675 | 36094 ft | 424 kts | 216° |
| 2026-04-15 15:08 | -19.97958 | -44.37370 | 36101 ft | 424 kts | 216° |
| 2026-04-15 15:09 | -20.02721 | -44.41070 | 36094 ft | 424 kts | 216° |
| 2026-04-15 15:09 | -20.07486 | -44.44770 | 36092 ft | 424 kts | 216° |
| 2026-04-15 15:10 | -20.12244 | -44.48463 | 36098 ft | 424 kts | 216° |
| 2026-04-15 15:10 | -20.17004 | -44.52162 | 36099 ft | 424 kts | 216° |
| 2026-04-15 15:11 | -20.21760 | -44.55862 | 36094 ft | 423 kts | 216° |
| 2026-04-15 15:11 | -20.26514 | -44.59568 | 36094 ft | 423 kts | 216° |
| 2026-04-15 15:12 | -20.31271 | -44.63276 | 36090 ft | 423 kts | 216° |
| 2026-04-15 15:12 | -20.36024 | -44.66983 | 36095 ft | 424 kts | 216° |
| 2026-04-15 15:13 | -20.40781 | -44.70693 | 36095 ft | 424 kts | 216° |
| 2026-04-15 15:13 | -20.45539 | -44.74407 | 36102 ft | 424 kts | 216° |
| 2026-04-15 15:14 | -20.50296 | -44.78123 | 36090 ft | 424 kts | 216° |
| 2026-04-15 15:14 | -20.55059 | -44.81844 | 36101 ft | 424 kts | 216° |
| 2026-04-15 15:15 | -20.59816 | -44.85561 | 36091 ft | 424 kts | 216° |
| 2026-04-15 15:15 | -20.64581 | -44.89281 | 36106 ft | 424 kts | 216° |
| 2026-04-15 15:16 | -20.69342 | -44.93005 | 36106 ft | 424 kts | 216° |
| 2026-04-15 15:16 | -20.74101 | -44.96732 | 36098 ft | 424 kts | 216° |
| 2026-04-15 15:17 | -20.78858 | -45.00464 | 36099 ft | 424 kts | 216° |
| 2026-04-15 15:17 | -20.83609 | -45.04208 | 36099 ft | 424 kts | 216° |
| 2026-04-15 15:18 | -20.88358 | -45.07954 | 36102 ft | 424 kts | 216° |
| 2026-04-15 15:18 | -20.93076 | -45.11675 | 36109 ft | 424 kts | 216° |
| 2026-04-15 15:19 | -20.97861 | -45.15435 | 36095 ft | 424 kts | 216° |
| 2026-04-15 15:19 | -21.02613 | -45.19180 | 36097 ft | 424 kts | 216° |
| 2026-04-15 15:20 | -21.07361 | -45.22930 | 36101 ft | 424 kts | 216° |
| 2026-04-15 15:20 | -21.12115 | -45.26678 | 36089 ft | 424 kts | 216° |
| 2026-04-15 15:21 | -21.16868 | -45.30433 | 36103 ft | 424 kts | 216° |
| 2026-04-15 15:21 | -21.21593 | -45.34165 | 36100 ft | 425 kts | 216° |
| 2026-04-15 15:22 | -21.26371 | -45.37953 | 36106 ft | 425 kts | 216° |
| 2026-04-15 15:22 | -21.31121 | -45.41720 | 36101 ft | 425 kts | 216° |
| 2026-04-15 15:23 | -21.35843 | -45.45465 | 36103 ft | 425 kts | 216° |
| 2026-04-15 15:23 | -21.40597 | -45.49225 | 36106 ft | 425 kts | 216° |
| 2026-04-15 15:24 | -21.45349 | -45.52994 | 36102 ft | 425 kts | 216° |
| 2026-04-15 15:24 | -21.50091 | -45.56775 | 36105 ft | 425 kts | 216° |
| 2026-04-15 15:25 | -21.54854 | -45.60534 | 36095 ft | 425 kts | 216° |
| 2026-04-15 15:25 | -21.59638 | -45.64279 | 36113 ft | 425 kts | 216° |
| 2026-04-15 15:26 | -21.64417 | -45.68025 | 36113 ft | 425 kts | 216° |
| 2026-04-15 15:26 | -21.69197 | -45.71779 | 36110 ft | 425 kts | 216° |
| 2026-04-15 15:27 | -21.73973 | -45.75540 | 35933 ft | 426 kts | 216° |
| 2026-04-15 15:27 | -21.76391 | -45.77447 | 34865 ft | 437 kts | 217° |
| 2026-04-15 15:27 | -21.78874 | -45.79405 | 33909 ft | 445 kts | 217° |
| 2026-04-15 15:28 | -21.81357 | -45.81362 | 33378 ft | 440 kts | 217° |
| 2026-04-15 15:28 | -21.83818 | -45.83301 | 32796 ft | 437 kts | 217° |
| 2026-04-15 15:28 | -21.86260 | -45.85227 | 32230 ft | 434 kts | 217° |
| 2026-04-15 15:28 | -21.88688 | -45.87143 | 31674 ft | 431 kts | 217° |
| 2026-04-15 15:29 | -21.91094 | -45.89044 | 31122 ft | 428 kts | 217° |
| 2026-04-15 15:29 | -21.93490 | -45.90938 | 30574 ft | 426 kts | 217° |
| 2026-04-15 15:29 | -21.95067 | -45.92186 | 30214 ft | 424 kts | 217° |
| 2026-04-15 15:29 | -21.97431 | -45.94059 | 29619 ft | 421 kts | 217° |
| 2026-04-15 15:30 | -21.99780 | -45.95919 | 29085 ft | 416 kts | 217° |
| 2026-04-15 15:30 | -22.02098 | -45.97753 | 28563 ft | 412 kts | 217° |
| 2026-04-15 15:30 | -22.04399 | -45.99573 | 28043 ft | 408 kts | 217° |
| 2026-04-15 15:30 | -22.06674 | -46.01372 | 27537 ft | 404 kts | 217° |
| 2026-04-15 15:31 | -22.08926 | -46.03155 | 27036 ft | 400 kts | 217° |
| 2026-04-15 15:31 | -22.11162 | -46.04927 | 26546 ft | 396 kts | 216° |
| 2026-04-15 15:31 | -22.13371 | -46.06680 | 26056 ft | 393 kts | 216° |
| 2026-04-15 15:31 | -22.15561 | -46.08419 | 25593 ft | 389 kts | 216° |
| 2026-04-15 15:32 | -22.17737 | -46.10147 | 25120 ft | 386 kts | 216° |
| 2026-04-15 15:32 | -22.19888 | -46.11856 | 24672 ft | 383 kts | 216° |
| 2026-04-15 15:32 | -22.22020 | -46.13551 | 24211 ft | 379 kts | 216° |
| 2026-04-15 15:32 | -22.24141 | -46.15237 | 23761 ft | 377 kts | 216° |
| 2026-04-15 15:33 | -22.26246 | -46.16910 | 23259 ft | 374 kts | 216° |
| 2026-04-15 15:33 | -22.28327 | -46.18563 | 22808 ft | 369 kts | 216° |
| 2026-04-15 15:33 | -22.30432 | -46.20120 | 22375 ft | 365 kts | 209° |
| 2026-04-15 15:33 | -22.32734 | -46.21238 | 21942 ft | 362 kts | 198° |
| 2026-04-15 15:34 | -22.35206 | -46.21860 | 21504 ft | 370 kts | 188° |
| 2026-04-15 15:34 | -22.37771 | -46.22253 | 21050 ft | 373 kts | 188° |
| 2026-04-15 15:34 | -22.40342 | -46.22647 | 20594 ft | 373 kts | 188° |
| 2026-04-15 15:34 | -22.42905 | -46.23042 | 20147 ft | 371 kts | 189° |
| 2026-04-15 15:35 | -22.45461 | -46.23436 | 19691 ft | 370 kts | 189° |
| 2026-04-15 15:35 | -22.48003 | -46.23827 | 19250 ft | 368 kts | 189° |
| 2026-04-15 15:35 | -22.50533 | -46.24220 | 18809 ft | 367 kts | 189° |
| 2026-04-15 15:35 | -22.53056 | -46.24614 | 18361 ft | 365 kts | 189° |
| 2026-04-15 15:36 | -22.55566 | -46.25009 | 17942 ft | 362 kts | 189° |
| 2026-04-15 15:36 | -22.58057 | -46.25398 | 17782 ft | 362 kts | 189° |
| 2026-04-15 15:36 | -22.60551 | -46.25787 | 17574 ft | 361 kts | 189° |
| 2026-04-15 15:36 | -22.63029 | -46.26171 | 17369 ft | 360 kts | 189° |
| 2026-04-15 15:37 | -22.65504 | -46.26554 | 17158 ft | 358 kts | 189° |
| 2026-04-15 15:37 | -22.67961 | -46.26935 | 16951 ft | 357 kts | 189° |
| 2026-04-15 15:37 | -22.70418 | -46.27315 | 16741 ft | 355 kts | 188° |
| 2026-04-15 15:37 | -22.72857 | -46.27695 | 16544 ft | 354 kts | 189° |
| 2026-04-15 15:38 | -22.75284 | -46.28074 | 16340 ft | 351 kts | 189° |
| 2026-04-15 15:38 | -22.77669 | -46.28571 | 16140 ft | 349 kts | 197° |
| 2026-04-15 15:38 | -22.79905 | -46.29536 | 15822 ft | 345 kts | 208° |
| 2026-04-15 15:38 | -22.81984 | -46.30817 | 15434 ft | 343 kts | 210° |
| 2026-04-15 15:39 | -22.84046 | -46.32100 | 15066 ft | 341 kts | 209° |
| 2026-04-15 15:39 | -22.86104 | -46.33380 | 14692 ft | 340 kts | 209° |
| 2026-04-15 15:39 | -22.88145 | -46.34649 | 14333 ft | 337 kts | 209° |
| 2026-04-15 15:39 | -22.90176 | -46.35909 | 13969 ft | 335 kts | 208° |
| 2026-04-15 15:40 | -22.92196 | -46.37163 | 13573 ft | 333 kts | 208° |
| 2026-04-15 15:40 | -22.94205 | -46.38411 | 13204 ft | 333 kts | 208° |
| 2026-04-15 15:40 | -22.96208 | -46.39654 | 12847 ft | 331 kts | 209° |
| 2026-04-15 15:40 | -22.98206 | -46.40892 | 12487 ft | 330 kts | 209° |
| 2026-04-15 15:41 | -23.00188 | -46.42122 | 12133 ft | 327 kts | 209° |
| 2026-04-15 15:41 | -23.02160 | -46.43346 | 11778 ft | 325 kts | 209° |
| 2026-04-15 15:41 | -23.04091 | -46.44542 | 11434 ft | 323 kts | 208° |
| 2026-04-15 15:41 | -23.06070 | -46.45770 | 11080 ft | 323 kts | 209° |
| 2026-04-15 15:42 | -23.07988 | -46.46964 | 10734 ft | 321 kts | 210° |
| 2026-04-15 15:42 | -23.09925 | -46.48173 | 10389 ft | 320 kts | 209° |
| 2026-04-15 15:42 | -23.11819 | -46.49355 | 10241 ft | 308 kts | 209° |
| 2026-04-15 15:42 | -23.13672 | -46.50508 | 10068 ft | 298 kts | 209° |
| 2026-04-15 15:43 | -23.15450 | -46.51611 | 9863 ft | 291 kts | 209° |
| 2026-04-15 15:43 | -23.17206 | -46.52701 | 9658 ft | 291 kts | 209° |
| 2026-04-15 15:43 | -23.18947 | -46.53785 | 9384 ft | 285 kts | 209° |
| 2026-04-15 15:43 | -23.20647 | -46.54847 | 9149 ft | 279 kts | 209° |
| 2026-04-15 15:44 | -23.22267 | -46.55914 | 8871 ft | 273 kts | 212° |
| 2026-04-15 15:44 | -23.23868 | -46.57043 | 8589 ft | 268 kts | 213° |
| 2026-04-15 15:44 | -23.25411 | -46.58156 | 8320 ft | 265 kts | 213° |
| 2026-04-15 15:44 | -23.26910 | -46.59242 | 8061 ft | 261 kts | 213° |
| 2026-04-15 15:45 | -23.28406 | -46.60322 | 7834 ft | 256 kts | 213° |
| 2026-04-15 15:45 | -23.29892 | -46.61388 | 7532 ft | 253 kts | 213° |
| 2026-04-15 15:45 | -23.31343 | -46.62423 | 7335 ft | 246 kts | 213° |
| 2026-04-15 15:45 | -23.32739 | -46.63416 | 7175 ft | 234 kts | 213° |
| 2026-04-15 15:46 | -23.34080 | -46.64368 | 6989 ft | 226 kts | 213° |
| 2026-04-15 15:46 | -23.35370 | -46.65283 | 6835 ft | 217 kts | 213° |
| 2026-04-15 15:46 | -23.36623 | -46.66173 | 6682 ft | 214 kts | 213° |
| 2026-04-15 15:46 | -23.37874 | -46.67063 | 6533 ft | 214 kts | 213° |
| 2026-04-15 15:47 | -23.39108 | -46.67941 | 6383 ft | 206 kts | 213° |
| 2026-04-15 15:47 | -23.40263 | -46.68765 | 6242 ft | 191 kts | 213° |
| 2026-04-15 15:47 | -23.41373 | -46.69470 | 6097 ft | 179 kts | 204° |
| 2026-04-15 15:47 | -23.42515 | -46.69887 | 6008 ft | 170 kts | 192° |
| 2026-04-15 15:48 | -23.43644 | -46.70041 | 5957 ft | 157 kts | 181° |
| 2026-04-15 15:48 | -23.44712 | -46.69967 | 5954 ft | 152 kts | 171° |
| 2026-04-15 15:48 | -23.45743 | -46.69726 | 5954 ft | 151 kts | 167° |
| 2026-04-15 15:48 | -23.46765 | -46.69433 | 5814 ft | 152 kts | 158° |
| 2026-04-15 15:49 | -23.47641 | -46.68822 | 5486 ft | 148 kts | 135° |
| 2026-04-15 15:49 | -23.48251 | -46.67929 | 5278 ft | 147 kts | 116° |
| 2026-04-15 15:49 | -23.48540 | -46.66870 | 5120 ft | 147 kts | 96° |
| 2026-04-15 15:49 | -23.48378 | -46.65782 | 5006 ft | 147 kts | 77° |
| 2026-04-15 15:50 | -23.48140 | -46.64706 | 4945 ft | 146 kts | 76° |
| 2026-04-15 15:50 | -23.47877 | -46.63634 | 4857 ft | 146 kts | 77° |
| 2026-04-15 15:50 | -23.47604 | -46.62575 | 4708 ft | 146 kts | 75° |
| 2026-04-15 15:50 | -23.47325 | -46.61517 | 4558 ft | 144 kts | 74° |
| 2026-04-15 15:51 | -23.47047 | -46.60474 | 4406 ft | 144 kts | 75° |
| 2026-04-15 15:51 | -23.46767 | -46.59430 | 4308 ft | 144 kts | 75° |
| 2026-04-15 15:51 | -23.46485 | -46.58380 | 4216 ft | 144 kts | 76° |
| 2026-04-15 15:51 | -23.46205 | -46.57337 | 4066 ft | 145 kts | 75° |
| 2026-04-15 15:52 | -23.45922 | -46.56287 | 3896 ft | 144 kts | 75° |
| 2026-04-15 15:52 | -23.45640 | -46.55236 | 3716 ft | 144 kts | 75° |
| 2026-04-15 15:52 | -23.45360 | -46.54199 | 3537 ft | 142 kts | 74° |
| 2026-04-15 15:52 | -23.45080 | -46.53160 | 3353 ft | 144 kts | 74° |
| 2026-04-15 15:53 | -23.44805 | -46.52139 | 3162 ft | 140 kts | 76° |
| 2026-04-15 15:53 | -23.44532 | -46.51138 | 2960 ft | 136 kts | 74° |
| 2026-04-15 15:53 | -23.44281 | -46.50154 | 2777 ft | 135 kts | 75° |
| 2026-04-15 15:53 | -23.44018 | -46.49178 | 2589 ft | 133 kts | 74° |
| 2026-04-15 15:54 | -23.43765 | -46.48251 | 2477 ft | 126 kts | 75° |
| 2026-04-15 15:54 | -23.43571 | -46.47502 | 2473 ft | 65 kts | 71° |
| 2026-04-15 15:54 | -23.43437 | -46.47087 | 2471 ft | 41 kts | 71° |
| 2026-04-15 15:54 | -23.43347 | -46.46909 | 2472 ft | 25 kts | 49° |
| 2026-04-15 15:55 | -23.43226 | -46.46782 | 2469 ft | 18 kts | 45° |
| 2026-04-15 15:55 | -23.43166 | -46.46724 | 2470 ft | 10 kts | 30° |
| 2026-04-15 15:55 | -23.43075 | -46.46722 | 2471 ft | 22 kts | 347° |
| 2026-04-15 15:55 | -23.42923 | -46.46767 | 2471 ft | 9 kts | 343° |
| 2026-04-15 15:56 | -23.42851 | -46.46834 | 2475 ft | 16 kts | 274° |
| 2026-04-15 15:56 | -23.42882 | -46.46955 | 2474 ft | 16 kts | 251° |
| 2026-04-15 15:56 | -23.42892 | -46.46991 | 2470 ft | 0 kts | 253° |
| 2026-04-15 15:57 | -23.42906 | -46.47042 | 2469 ft | 15 kts | 254° |
| 2026-04-15 15:58 | -23.42940 | -46.47181 | 2471 ft | 22 kts | 254° |
| 2026-04-15 15:58 | -23.42974 | -46.47315 | 2470 ft | 15 kts | 254° |
| 2026-04-15 15:58 | -23.42993 | -46.47421 | 2468 ft | 14 kts | 288° |
| 2026-04-15 15:58 | -23.42899 | -46.47477 | 2471 ft | 16 kts | 336° |
| 2026-04-15 15:59 | -23.42880 | -46.47581 | 2468 ft | 17 kts | 255° |
| 2026-04-15 15:59 | -23.42915 | -46.47713 | 2471 ft | 15 kts | 252° |
| 2026-04-15 15:59 | -23.42934 | -46.47803 | 2470 ft | 6 kts | 278° |
| 2026-04-15 15:59 | -23.42909 | -46.47835 | 2468 ft | 5 kts | 310° |
| 2026-04-15 16:00 | -23.42897 | -46.47866 | 2473 ft | 4 kts | 285° |
| 2026-04-15 16:00 | -23.42891 | -46.47889 | 2470 ft | 3 kts | 283° |
| 2026-04-15 16:00 | -23.42891 | -46.47893 | 2472 ft | 0 kts | 283° |
| 2026-04-15 16:00 | -23.42890 | -46.47898 | 2471 ft | 0 kts | 283° |
| 2026-04-15 16:01 | -23.42889 | -46.47902 | 2470 ft | 3 kts | 283° |
| 2026-04-15 16:01 | -23.42883 | -46.47931 | 2468 ft | 0 kts | 281° |